createdAt,value
2016-08-30T00:00:45.040Z,14.52
2016-08-30T00:01:42.252Z,14.49
2016-08-30T00:02:41.143Z,14.49
2016-08-30T00:03:39.654Z,14.46
2016-08-30T00:04:39.643Z,14.61
2016-08-30T00:05:40.366Z,14.56
2016-08-30T00:06:40.331Z,14.49
2016-08-30T00:07:40.321Z,14.53
2016-08-30T00:08:39.605Z,14.47
2016-08-30T00:09:40.299Z,14.52
2016-08-30T00:10:39.579Z,14.5
2016-08-30T00:11:40.284Z,14.57
2016-08-30T00:12:39.571Z,14.52
2016-08-30T00:13:39.568Z,14.57
2016-08-30T00:14:39.550Z,14.57
2016-08-30T00:15:40.240Z,14.57
2016-08-30T00:16:39.518Z,14.6
2016-08-30T00:17:40.217Z,14.56
2016-08-30T00:18:40.205Z,14.6
2016-08-30T00:19:40.194Z,14.56
2016-08-30T00:20:39.480Z,14.52
2016-08-30T00:21:39.466Z,14.49
2016-08-30T00:22:40.163Z,14.49
2016-08-30T00:23:40.161Z,14.54
2016-08-30T00:24:39.437Z,14.6
2016-08-30T00:25:39.423Z,14.49
2016-08-30T00:26:39.429Z,14.43
2016-08-30T00:27:39.402Z,14.49
2016-08-30T00:28:39.397Z,14.46
2016-08-30T00:29:39.386Z,14.52
2016-08-30T00:30:40.076Z,14.46
2016-08-30T00:31:40.070Z,14.43
2016-08-30T00:32:40.059Z,14.42
2016-08-30T00:33:39.343Z,14.43
2016-08-30T00:34:39.332Z,14.38
2016-08-30T00:35:40.024Z,14.37
2016-08-30T00:36:40.040Z,14.34
2016-08-30T00:37:39.302Z,14.38
2016-08-30T00:38:39.291Z,14.37
2016-08-30T00:39:39.287Z,14.37
2016-08-30T00:40:39.975Z,14.39
2016-08-30T00:41:39.261Z,14.42
2016-08-30T00:42:39.248Z,14.42
2016-08-30T00:43:39.240Z,14.43
2016-08-30T00:44:39.941Z,14.5
2016-08-30T00:45:40.632Z,14.46
2016-08-30T00:46:39.916Z,14.47
2016-08-30T00:47:39.199Z,14.46
2016-08-30T00:48:39.186Z,14.43
2016-08-30T00:49:39.172Z,14.42
2016-08-30T00:50:39.160Z,14.44
2016-08-30T00:51:39.157Z,14.5
2016-08-30T00:52:39.145Z,14.38
2016-08-30T00:53:39.840Z,14.47
2016-08-30T00:54:39.123Z,14.49
2016-08-30T00:55:39.821Z,14.47
2016-08-30T00:56:39.101Z,14.47
2016-08-30T00:57:39.812Z,14.49
2016-08-30T00:58:39.081Z,14.44
2016-08-30T00:59:39.074Z,14.47
2016-08-30T01:00:39.059Z,14.43
2016-08-30T01:01:39.046Z,14.44
2016-08-30T01:02:39.750Z,14.49
2016-08-30T01:03:39.026Z,14.44
2016-08-30T01:04:39.067Z,14.35
2016-08-30T01:05:39.007Z,14.44
2016-08-30T01:06:38.997Z,14.46
2016-08-30T01:07:38.994Z,14.42
2016-08-30T01:08:38.974Z,14.42
2016-08-30T01:09:39.674Z,14.39
2016-08-30T01:10:38.956Z,14.37
2016-08-30T01:11:38.943Z,14.32
2016-08-30T01:12:38.939Z,14.42
2016-08-30T01:13:39.633Z,14.38
2016-08-30T01:14:38.965Z,14.32
2016-08-30T01:15:38.903Z,14.34
2016-08-30T01:16:38.892Z,14.31
2016-08-30T01:17:38.891Z,14.31
2016-08-30T01:18:38.926Z,14.25
2016-08-30T01:19:39.567Z,14.28
2016-08-30T01:20:38.847Z,14.21
2016-08-30T01:21:40.255Z,14.28
2016-08-30T01:22:38.832Z,14.32
2016-08-30T01:23:38.819Z,14.29
2016-08-30T01:24:38.811Z,14.29
2016-08-30T01:25:39.505Z,14.24
2016-08-30T01:26:39.501Z,14.25
2016-08-30T01:27:38.775Z,14.27
2016-08-30T01:28:38.777Z,14.2
2016-08-30T01:29:39.464Z,14.17
2016-08-30T01:30:38.745Z,14.12
2016-08-30T01:31:38.736Z,14.17
2016-08-30T01:32:39.440Z,14.19
2016-08-30T01:33:38.715Z,14.2
2016-08-30T01:34:39.413Z,14.16
2016-08-30T01:35:38.692Z,14.12
2016-08-30T01:36:38.692Z,14.1
2016-08-30T01:37:38.675Z,14.07
2016-08-30T01:38:38.661Z,14.01
2016-08-30T01:39:39.361Z,13.92
2016-08-30T01:40:38.640Z,13.92
2016-08-30T01:41:39.343Z,13.81
2016-08-30T01:42:39.327Z,13.84
2016-08-30T01:43:38.620Z,13.8
2016-08-30T01:44:38.599Z,13.81
2016-08-30T01:45:38.586Z,13.8
2016-08-30T01:46:38.579Z,13.81
2016-08-30T01:47:39.275Z,13.79
2016-08-30T01:48:39.266Z,13.77
2016-08-30T01:49:38.545Z,13.87
2016-08-30T01:50:38.532Z,13.71
2016-08-30T01:51:39.239Z,13.77
2016-08-30T01:52:38.511Z,13.69
2016-08-30T01:53:38.516Z,13.71
2016-08-30T01:54:38.493Z,13.62
2016-08-30T01:55:38.478Z,13.58
2016-08-30T01:56:39.180Z,13.55
2016-08-30T01:57:38.461Z,13.54
2016-08-30T01:58:38.453Z,13.58
2016-08-30T01:59:39.151Z,13.51
2016-08-30T02:00:38.424Z,13.58
2016-08-30T02:01:38.423Z,13.52
2016-08-30T02:02:38.404Z,13.52
2016-08-30T02:03:38.445Z,13.46
2016-08-30T02:04:38.387Z,13.43
2016-08-30T02:05:38.375Z,13.43
2016-08-30T02:06:38.387Z,13.46
2016-08-30T02:07:38.353Z,13.38
2016-08-30T02:08:39.048Z,13.36
2016-08-30T02:09:38.333Z,13.33
2016-08-30T02:10:38.315Z,13.33
2016-08-30T02:11:38.308Z,13.36
2016-08-30T02:12:39.007Z,13.4
2016-08-30T02:13:38.284Z,13.32
2016-08-30T02:14:38.277Z,13.3
2016-08-30T02:15:38.261Z,13.37
2016-08-30T02:16:38.966Z,13.32
2016-08-30T02:17:38.950Z,13.29
2016-08-30T02:18:38.943Z,13.25
2016-08-30T02:19:38.221Z,13.3
2016-08-30T02:20:38.210Z,13.14
2016-08-30T02:21:38.201Z,13.24
2016-08-30T02:22:38.895Z,13.27
2016-08-30T02:23:38.886Z,13.25
2016-08-30T02:24:38.169Z,13.22
2016-08-30T02:25:38.152Z,13.25
2016-08-30T02:26:38.147Z,13.32
2016-08-30T02:27:38.141Z,13.29
2016-08-30T02:28:38.121Z,13.21
2016-08-30T02:29:38.185Z,13.32
2016-08-30T02:30:38.107Z,13.24
2016-08-30T02:31:38.102Z,13.27
2016-08-30T02:32:38.077Z,13.25
2016-08-30T02:33:38.065Z,13.27
2016-08-30T02:34:38.056Z,13.2
2016-08-30T02:35:38.440Z,13.21
2016-08-30T02:36:38.759Z,13.15
2016-08-30T02:37:38.020Z,13.14
2016-08-30T02:38:38.016Z,13.09
2016-08-30T02:39:38.004Z,13.14
2016-08-30T02:40:37.990Z,13.24
2016-08-30T02:41:37.982Z,13.2
2016-08-30T02:42:37.972Z,13.09
2016-08-30T02:43:37.961Z,13.17
2016-08-30T02:44:37.945Z,13.07
2016-08-30T02:45:37.933Z,12.99
2016-08-30T02:46:38.686Z,12.99
2016-08-30T02:47:38.617Z,12.99
2016-08-30T02:48:37.907Z,12.99
2016-08-30T02:49:38.610Z,12.95
2016-08-30T02:50:38.586Z,13
2016-08-30T02:51:37.868Z,13
2016-08-30T02:52:37.852Z,12.95
2016-08-30T02:53:38.554Z,13.06
2016-08-30T02:54:37.840Z,12.97
2016-08-30T02:55:37.822Z,13.02
2016-08-30T02:56:37.815Z,12.97
2016-08-30T02:57:37.798Z,12.99
2016-08-30T02:58:37.797Z,13
2016-08-30T02:59:37.780Z,13.02
2016-08-30T03:00:37.775Z,12.92
2016-08-30T03:01:39.183Z,12.99
2016-08-30T03:02:38.459Z,12.92
2016-08-30T03:03:37.754Z,12.93
2016-08-30T03:04:37.738Z,12.97
2016-08-30T03:05:37.717Z,12.93
2016-08-30T03:06:39.140Z,12.84
2016-08-30T03:07:39.119Z,12.88
2016-08-30T03:08:38.387Z,12.84
2016-08-30T03:09:38.393Z,12.85
2016-08-30T03:10:37.726Z,12.85
2016-08-30T03:11:37.651Z,12.93
2016-08-30T03:12:37.633Z,12.92
2016-08-30T03:13:37.625Z,12.84
2016-08-30T03:14:37.618Z,12.82
2016-08-30T03:15:37.599Z,12.79
2016-08-30T03:16:39.007Z,12.78
2016-08-30T03:17:37.587Z,12.75
2016-08-30T03:18:37.569Z,12.79
2016-08-30T03:19:37.556Z,12.69
2016-08-30T03:20:37.543Z,12.67
2016-08-30T03:21:37.534Z,12.67
2016-08-30T03:22:38.242Z,12.67
2016-08-30T03:23:38.216Z,12.63
2016-08-30T03:24:37.503Z,12.67
2016-08-30T03:25:37.489Z,12.63
2016-08-30T03:26:37.475Z,12.52
2016-08-30T03:27:37.469Z,12.62
2016-08-30T03:28:37.460Z,12.54
2016-08-30T03:29:38.151Z,12.54
2016-08-30T03:30:37.436Z,12.44
2016-08-30T03:31:37.426Z,12.45
2016-08-30T03:32:38.838Z,12.49
2016-08-30T03:33:38.117Z,12.48
2016-08-30T03:34:38.098Z,12.54
2016-08-30T03:35:37.385Z,12.41
2016-08-30T03:36:37.367Z,12.41
2016-08-30T03:37:37.353Z,12.41
2016-08-30T03:38:37.347Z,12.46
2016-08-30T03:39:38.039Z,12.42
2016-08-30T03:40:37.322Z,12.39
2016-08-30T03:41:37.307Z,12.45
2016-08-30T03:42:37.291Z,12.42
2016-08-30T03:43:37.992Z,12.42
2016-08-30T03:44:37.981Z,12.41
2016-08-30T03:45:37.260Z,12.39
2016-08-30T03:46:37.956Z,12.34
2016-08-30T03:47:37.238Z,12.38
2016-08-30T03:48:37.969Z,12.38
2016-08-30T03:49:37.233Z,12.42
2016-08-30T03:50:37.230Z,12.38
2016-08-30T03:51:37.196Z,12.44
2016-08-30T03:52:37.186Z,12.38
2016-08-30T03:53:37.165Z,12.38
2016-08-30T03:54:37.156Z,12.37
2016-08-30T03:55:37.149Z,12.37
2016-08-30T03:56:37.844Z,12.38
2016-08-30T03:57:37.829Z,12.34
2016-08-30T03:58:37.113Z,12.34
2016-08-30T03:59:37.101Z,12.27
2016-08-30T04:00:37.093Z,12.34
2016-08-30T04:01:37.073Z,12.2
2016-08-30T04:02:37.065Z,12.24
2016-08-30T04:03:37.978Z,12.24
2016-08-30T04:04:37.043Z,12.24
2016-08-30T04:05:37.738Z,12.23
2016-08-30T04:06:37.014Z,12.16
2016-08-30T04:07:37.009Z,12.15
2016-08-30T04:08:36.996Z,12.21
2016-08-30T04:09:36.981Z,12.12
2016-08-30T04:10:37.678Z,12.12
2016-08-30T04:11:36.962Z,12.09
2016-08-30T04:12:36.949Z,12.11
2016-08-30T04:13:36.940Z,12.05
2016-08-30T04:14:36.929Z,12.02
2016-08-30T04:15:36.918Z,12.12
2016-08-30T04:16:37.608Z,12.11
2016-08-30T04:17:36.892Z,12.02
2016-08-30T04:18:36.881Z,12.08
2016-08-30T04:19:36.872Z,12.04
2016-08-30T04:20:36.858Z,12.06
2016-08-30T04:21:36.843Z,12.06
2016-08-30T04:22:36.835Z,11.96
2016-08-30T04:23:38.291Z,11.97
2016-08-30T04:24:36.810Z,11.96
2016-08-30T04:25:37.505Z,11.93
2016-08-30T04:26:37.502Z,12.01
2016-08-30T04:27:37.533Z,11.97
2016-08-30T04:28:37.471Z,11.97
2016-08-30T04:29:37.456Z,11.93
2016-08-30T04:30:37.448Z,12.06
2016-08-30T04:31:36.730Z,12.06
2016-08-30T04:32:37.422Z,12.08
2016-08-30T04:33:38.139Z,12.12
2016-08-30T04:34:36.696Z,12.11
2016-08-30T04:35:38.136Z,12.04
2016-08-30T04:36:37.405Z,12.09
2016-08-30T04:37:37.373Z,12.08
2016-08-30T04:38:36.647Z,12.02
2016-08-30T04:39:37.344Z,11.99
2016-08-30T04:40:37.330Z,12.01
2016-08-30T04:41:36.626Z,11.97
2016-08-30T04:42:36.598Z,11.9
2016-08-30T04:43:36.593Z,11.97
2016-08-30T04:44:37.284Z,11.97
2016-08-30T04:45:36.565Z,11.93
2016-08-30T04:46:36.552Z,11.97
2016-08-30T04:47:36.536Z,11.97
2016-08-30T04:48:36.530Z,11.93
2016-08-30T04:49:36.525Z,11.94
2016-08-30T04:50:36.512Z,11.94
2016-08-30T04:51:36.487Z,11.89
2016-08-30T04:52:36.480Z,11.94
2016-08-30T04:53:36.476Z,11.96
2016-08-30T04:54:36.456Z,11.96
2016-08-30T04:55:36.442Z,11.89
2016-08-30T04:56:36.432Z,11.99
2016-08-30T04:57:36.430Z,11.87
2016-08-30T04:58:37.118Z,11.89
2016-08-30T04:59:37.811Z,11.89
2016-08-30T05:00:37.096Z,11.89
2016-08-30T05:01:37.080Z,11.85
2016-08-30T05:02:36.371Z,11.86
2016-08-30T05:03:37.065Z,11.87
2016-08-30T05:04:36.341Z,11.89
2016-08-30T05:05:37.037Z,11.99
2016-08-30T05:06:36.319Z,11.97
2016-08-30T05:07:36.308Z,11.87
2016-08-30T05:08:37.004Z,11.96
2016-08-30T05:09:36.282Z,11.89
2016-08-30T05:10:36.270Z,11.89
2016-08-30T05:11:36.273Z,12.01
2016-08-30T05:12:36.246Z,12.01
2016-08-30T05:13:36.237Z,11.97
2016-08-30T05:14:36.227Z,11.99
2016-08-30T05:15:36.208Z,12.02
2016-08-30T05:16:36.200Z,11.94
2016-08-30T05:17:36.188Z,12.02
2016-08-30T05:18:36.880Z,11.99
2016-08-30T05:19:36.873Z,11.96
2016-08-30T05:20:36.151Z,11.97
2016-08-30T05:21:36.849Z,11.94
2016-08-30T05:22:36.837Z,12.01
2016-08-30T05:23:36.818Z,11.97
2016-08-30T05:24:36.110Z,11.97
2016-08-30T05:25:36.802Z,11.96
2016-08-30T05:26:36.095Z,11.96
2016-08-30T05:27:36.077Z,11.99
2016-08-30T05:28:36.805Z,12.05
2016-08-30T05:29:36.069Z,12.08
2016-08-30T05:30:36.048Z,12.04
2016-08-30T05:31:36.032Z,12.02
2016-08-30T05:32:36.020Z,12.04
2016-08-30T05:33:36.000Z,12.01
2016-08-30T05:34:35.989Z,12.12
2016-08-30T05:35:36.691Z,12.08
2016-08-30T05:36:35.977Z,12.13
2016-08-30T05:37:35.952Z,12.19
2016-08-30T05:38:36.092Z,12.21
2016-08-30T05:39:36.642Z,12.23
2016-08-30T05:40:36.047Z,12.26
2016-08-30T05:41:35.914Z,12.27
2016-08-30T05:42:35.935Z,12.23
2016-08-30T05:43:36.632Z,12.24
2016-08-30T05:44:36.587Z,12.29
2016-08-30T05:45:41.812Z,12.31
2016-08-30T05:46:36.109Z,12.37
2016-08-30T05:47:36.544Z,12.34
2016-08-30T05:48:36.535Z,12.42
2016-08-30T05:49:36.524Z,12.37
2016-08-30T05:50:35.810Z,12.34
2016-08-30T05:51:35.786Z,12.44
2016-08-30T05:52:35.786Z,12.39
2016-08-30T05:58:10.033Z,12.54
2016-08-30T05:59:14.083Z,12.54
2016-08-30T06:00:18.641Z,12.64
2016-08-30T06:01:25.670Z,12.64
2016-08-30T06:02:11.613Z,12.64
2016-08-30T06:03:10.225Z,12.63
2016-08-30T06:04:09.990Z,12.69
2016-08-30T06:05:11.444Z,12.74
2016-08-30T06:06:09.976Z,12.82
2016-08-30T06:07:17.506Z,12.88
2016-08-30T06:08:14.693Z,12.92
2016-08-30T06:09:13.681Z,12.95
2016-08-30T06:10:22.255Z,12.96
2016-08-30T06:11:09.984Z,13
2016-08-30T06:12:09.896Z,13.07
2016-08-30T06:13:09.875Z,13.06
2016-08-30T06:14:09.857Z,13.14
2016-08-30T06:15:13.679Z,13.11
2016-08-30T06:16:09.915Z,13.18
2016-08-30T06:17:09.951Z,13.22
2016-08-30T06:18:09.815Z,13.29
2016-08-30T06:19:09.805Z,13.2
2016-08-30T06:20:23.732Z,13.37
2016-08-30T06:21:09.826Z,13.41
2016-08-30T06:22:10.961Z,13.49
2016-08-30T06:23:09.848Z,13.56
2016-08-30T06:24:09.753Z,13.62
2016-08-30T06:25:10.346Z,13.59
2016-08-30T06:26:09.722Z,13.67
2016-08-30T06:27:09.730Z,13.76
2016-08-30T06:28:09.707Z,13.88
2016-08-30T06:29:09.701Z,13.81
2016-08-30T06:30:09.684Z,13.92
2016-08-30T06:31:09.668Z,13.83
2016-08-30T06:32:09.659Z,13.83
2016-08-30T06:33:09.649Z,13.87
2016-08-30T06:34:10.343Z,14.02
2016-08-30T06:35:09.634Z,13.91
2016-08-30T06:36:09.619Z,14.09
2016-08-30T06:37:09.606Z,14.1
2016-08-30T06:38:09.591Z,14.1
2016-08-30T06:39:09.594Z,14.12
2016-08-30T06:40:09.574Z,14.24
2016-08-30T06:41:10.276Z,14.29
2016-08-30T06:42:09.580Z,14.25
2016-08-30T06:43:09.547Z,14.34
2016-08-30T06:44:10.237Z,14.34
2016-08-30T06:45:09.519Z,14.37
2016-08-30T06:46:09.512Z,14.42
2016-08-30T06:47:09.515Z,14.47
2016-08-30T06:48:09.487Z,14.47
2016-08-30T06:49:09.480Z,14.47
2016-08-30T06:50:09.466Z,14.54
2016-08-30T06:51:09.457Z,14.6
2016-08-30T06:52:09.438Z,14.56
2016-08-30T06:53:10.144Z,14.67
2016-08-30T06:54:09.426Z,14.64
2016-08-30T06:55:09.414Z,14.72
2016-08-30T06:56:09.404Z,14.83
2016-08-30T06:57:09.394Z,14.83
2016-08-30T06:58:09.392Z,14.84
2016-08-30T06:59:09.386Z,14.95
2016-08-30T07:00:10.087Z,14.9
2016-08-30T07:01:10.066Z,14.99
2016-08-30T07:02:10.756Z,14.98
2016-08-30T07:03:09.332Z,15.12
2016-08-30T07:04:09.479Z,15.17
2016-08-30T07:05:09.309Z,15.17
2016-08-30T07:06:09.303Z,15.26
2016-08-30T07:07:09.291Z,15.27
2016-08-30T07:08:09.280Z,15.28
2016-08-30T07:09:09.280Z,15.35
2016-08-30T07:10:09.975Z,15.33
2016-08-30T07:11:09.250Z,15.35
2016-08-30T07:12:09.251Z,15.43
2016-08-30T07:13:09.942Z,15.41
2016-08-30T07:14:10.759Z,15.42
2016-08-30T07:15:09.214Z,15.48
2016-08-30T07:16:09.909Z,15.57
2016-08-30T07:17:09.200Z,15.57
2016-08-30T07:18:09.182Z,15.57
2016-08-30T07:19:09.185Z,15.59
2016-08-30T07:20:17.008Z,15.67
2016-08-30T07:21:10.011Z,15.63
2016-08-30T07:22:09.261Z,15.7
2016-08-30T07:23:09.925Z,15.75
2016-08-30T07:24:09.202Z,15.72
2016-08-30T07:25:14.399Z,15.76
2016-08-30T07:26:10.648Z,15.81
2016-08-30T07:27:09.089Z,15.82
2016-08-30T07:28:10.003Z,15.96
2016-08-30T07:29:09.070Z,15.96
2016-08-30T07:30:09.767Z,16.11
2016-08-30T07:31:09.097Z,16.15
2016-08-30T07:32:09.037Z,16.16
2016-08-30T07:33:09.031Z,16.33
2016-08-30T07:34:09.030Z,16.27
2016-08-30T07:35:11.808Z,16.34
2016-08-30T07:36:09.015Z,16.35
2016-08-30T07:37:08.999Z,16.4
2016-08-30T07:38:09.110Z,16.49
2016-08-30T07:39:08.971Z,16.42
2016-08-30T07:40:12.374Z,16.48
2016-08-30T07:41:09.663Z,16.44
2016-08-30T07:42:08.957Z,16.53
2016-08-30T07:43:08.949Z,16.53
2016-08-30T07:44:08.922Z,16.65
2016-08-30T07:45:08.922Z,16.56
2016-08-30T07:46:09.613Z,16.62
2016-08-30T07:47:08.905Z,16.6
2016-08-30T07:48:08.885Z,16.71
2016-08-30T07:49:08.872Z,16.73
2016-08-30T07:50:08.870Z,16.85
2016-08-30T07:51:08.861Z,16.81
2016-08-30T07:52:08.856Z,16.68
2016-08-30T07:53:08.844Z,16.78
2016-08-30T07:54:09.540Z,16.83
2016-08-30T07:55:08.826Z,16.89
2016-08-30T07:56:09.522Z,16.81
2016-08-30T07:57:08.802Z,16.89
2016-08-30T07:58:08.791Z,16.85
2016-08-30T07:59:08.785Z,17
2016-08-30T08:00:11.422Z,16.99
2016-08-30T08:01:08.767Z,17.03
2016-08-30T08:02:08.758Z,17.03
2016-08-30T08:03:08.950Z,17.1
2016-08-30T08:04:08.755Z,17.1
2016-08-30T08:05:08.730Z,17.15
2016-08-30T08:06:08.719Z,17.17
2016-08-30T08:07:09.420Z,17.25
2016-08-30T08:08:09.423Z,17.26
2016-08-30T08:09:08.697Z,17.32
2016-08-30T08:10:09.390Z,17.3
2016-08-30T08:11:08.679Z,17.36
2016-08-30T08:12:08.670Z,17.38
2016-08-30T08:13:09.375Z,17.47
2016-08-30T08:14:08.651Z,17.44
2016-08-30T08:15:10.053Z,17.43
2016-08-30T08:16:08.807Z,17.79
2016-08-30T08:17:08.645Z,18.21
2016-08-30T08:18:08.615Z,18.58
2016-08-30T08:19:09.320Z,18.55
2016-08-30T08:20:09.303Z,18.44
2016-08-30T08:21:08.589Z,18.42
2016-08-30T08:22:08.586Z,18.47
2016-08-30T08:23:08.570Z,18.39
2016-08-30T08:24:09.274Z,18.43
2016-08-30T08:25:09.264Z,18.47
2016-08-30T08:26:08.549Z,18.72
2016-08-30T08:27:08.537Z,19.11
2016-08-30T08:28:08.531Z,19.53
2016-08-30T08:29:08.526Z,19.87
2016-08-30T08:30:08.517Z,20.02
2016-08-30T08:31:09.415Z,20.08
2016-08-30T08:32:08.499Z,19.95
2016-08-30T08:33:08.496Z,19.87
2016-08-30T08:34:08.490Z,19.79
2016-08-30T08:35:09.196Z,19.7
2016-08-30T08:36:08.475Z,19.8
2016-08-30T08:37:08.473Z,19.79
2016-08-30T08:38:08.450Z,19.87
2016-08-30T08:39:08.457Z,19.8
2016-08-30T08:40:08.448Z,19.63
2016-08-30T08:42:06.205Z,19.72
2016-08-30T08:42:19.487Z,19.73
2016-08-30T08:43:16.990Z,19.78
2016-08-30T08:44:19.139Z,19.84
2016-08-30T08:45:19.851Z,19.8
2016-08-30T08:46:17.268Z,19.84
2016-08-30T08:47:18.423Z,19.73
2016-08-30T08:48:16.949Z,19.68
2016-08-30T08:49:16.947Z,19.83
2016-08-30T08:50:17.583Z,19.76
2016-08-30T08:51:17.008Z,19.79
2016-08-30T08:52:16.976Z,19.72
2016-08-30T08:53:16.924Z,19.63
2016-08-30T08:54:17.624Z,19.65
2016-08-30T08:55:19.973Z,19.63
2016-08-30T08:56:16.909Z,19.57
2016-08-30T08:57:16.900Z,19.66
2016-08-30T08:58:16.930Z,19.68
2016-08-30T08:59:17.602Z,19.63
2016-08-30T09:00:18.991Z,19.47
2016-08-30T09:01:16.866Z,19.58
2016-08-30T09:02:16.857Z,19.53
2016-08-30T09:03:17.560Z,19.53
2016-08-30T09:04:16.847Z,19.48
2016-08-30T09:05:19.345Z,19.55
2016-08-30T09:06:16.839Z,19.48
2016-08-30T09:07:16.864Z,19.4
2016-08-30T09:08:16.808Z,19.4
2016-08-30T09:09:16.807Z,19.4
2016-08-30T09:10:18.359Z,19.38
2016-08-30T09:11:16.804Z,19.35
2016-08-30T09:12:17.498Z,19.4
2016-08-30T09:13:16.780Z,19.42
2016-08-30T09:14:16.768Z,19.4
2016-08-30T09:15:17.565Z,19.46
2016-08-30T09:16:17.458Z,19.57
2016-08-30T09:17:16.746Z,19.48
2016-08-30T09:18:16.744Z,19.66
2016-08-30T09:19:16.732Z,19.87
2016-08-30T09:20:17.751Z,20.05
2016-08-30T09:21:16.739Z,20.1
2016-08-30T09:22:17.421Z,20.23
2016-08-30T09:23:16.705Z,20.23
2016-08-30T09:24:16.699Z,20.25
2016-08-30T09:25:16.687Z,20.24
2016-08-30T09:26:17.389Z,20.21
2016-08-30T09:27:16.677Z,20.24
2016-08-30T09:28:16.670Z,20.27
2016-08-30T09:29:17.370Z,20.3
2016-08-30T09:30:17.223Z,20.28
2016-08-30T09:31:16.699Z,20.23
2016-08-30T09:32:17.352Z,20.23
2016-08-30T09:33:16.652Z,20.15
2016-08-30T09:34:16.628Z,20.12
2016-08-30T09:35:16.782Z,20.09
2016-08-30T09:36:16.613Z,20.05
2016-08-30T09:37:16.607Z,19.93
2016-08-30T09:38:16.602Z,19.98
2016-08-30T09:39:16.605Z,20.05
2016-08-30T09:40:16.592Z,20.15
2016-08-30T09:41:16.578Z,20.24
2016-08-30T09:42:16.569Z,20.24
2016-08-30T09:43:16.563Z,20.23
2016-08-30T09:44:16.560Z,20.23
2016-08-30T09:45:17.502Z,20.24
2016-08-30T09:46:16.542Z,20.27
2016-08-30T09:47:17.250Z,20.34
2016-08-30T09:48:16.533Z,20.31
2016-08-30T09:49:16.518Z,20.35
2016-08-30T09:50:16.534Z,20.56
2016-08-30T09:51:16.503Z,20.81
2016-08-30T09:52:16.500Z,20.8
2016-08-30T09:53:17.205Z,20.8
2016-08-30T09:54:17.193Z,20.79
2016-08-30T09:55:16.678Z,20.65
2016-08-30T09:56:16.486Z,20.64
2016-08-30T09:57:17.882Z,20.49
2016-08-30T09:58:16.470Z,20.42
2016-08-30T09:59:17.156Z,20.47
2016-08-30T10:00:17.153Z,20.5
2016-08-30T10:01:16.441Z,20.46
2016-08-30T10:02:16.429Z,20.5
2016-08-30T10:03:16.625Z,20.42
2016-08-30T10:04:16.415Z,20.41
2016-08-30T10:05:16.408Z,20.42
2016-08-30T10:06:16.402Z,20.51
2016-08-30T10:07:16.396Z,20.59
2016-08-30T10:08:16.383Z,20.59
2016-08-30T10:09:16.377Z,20.64
2016-08-30T10:10:17.313Z,20.59
2016-08-30T10:11:16.359Z,20.62
2016-08-30T10:12:16.365Z,20.62
2016-08-30T10:13:16.351Z,20.62
2016-08-30T10:14:16.356Z,20.65
2016-08-30T10:15:16.338Z,20.59
2016-08-30T10:16:16.328Z,20.59
2016-08-30T10:17:16.326Z,20.58
2016-08-30T10:18:16.315Z,20.71
2016-08-30T10:19:16.312Z,20.81
2016-08-30T10:20:17.718Z,20.79
2016-08-30T10:21:16.302Z,20.81
2016-08-30T10:22:16.287Z,20.89
2016-08-30T10:23:16.283Z,20.83
2016-08-30T10:24:16.985Z,20.98
2016-08-30T10:25:16.264Z,20.96
2016-08-30T10:26:16.266Z,20.86
2016-08-30T10:27:16.966Z,20.83
2016-08-30T10:28:16.259Z,20.87
2016-08-30T10:29:17.652Z,20.87
2016-08-30T10:30:16.972Z,20.83
2016-08-30T10:31:16.282Z,20.8
2016-08-30T10:32:16.220Z,20.84
2016-08-30T10:33:16.214Z,20.84
2016-08-30T10:34:16.208Z,20.91
2016-08-30T10:35:16.201Z,20.98
2016-08-30T10:36:16.194Z,20.96
2016-08-30T10:37:16.186Z,20.95
2016-08-30T10:38:16.885Z,21.04
2016-08-30T10:39:16.886Z,20.96
2016-08-30T10:40:16.896Z,20.91
2016-08-30T10:41:16.866Z,20.87
2016-08-30T10:42:16.862Z,20.9
2016-08-30T10:43:16.149Z,21.05
2016-08-30T10:44:16.145Z,21.06
2016-08-30T10:45:16.866Z,21.08
2016-08-30T10:46:16.125Z,21.13
2016-08-30T10:47:16.121Z,21.2
2016-08-30T10:48:16.128Z,21.27
2016-08-30T10:49:16.814Z,21.27
2016-08-30T10:50:16.099Z,21.23
2016-08-30T10:51:16.800Z,21.27
2016-08-30T10:52:16.801Z,21.26
2016-08-30T10:53:16.088Z,21.3
2016-08-30T10:54:16.077Z,21.41
2016-08-30T10:55:16.794Z,21.59
2016-08-30T10:56:16.065Z,21.64
2016-08-30T10:57:16.053Z,21.82
2016-08-30T10:58:16.757Z,21.88
2016-08-30T10:59:16.041Z,21.99
2016-08-30T11:00:17.451Z,22.07
2016-08-30T11:01:16.740Z,22.28
2016-08-30T11:02:16.024Z,22.49
2016-08-30T11:03:16.731Z,22.6
2016-08-30T11:04:16.014Z,22.65
2016-08-30T11:05:16.249Z,22.56
2016-08-30T11:06:16.710Z,22.57
2016-08-30T11:07:16.005Z,22.64
2016-08-30T11:08:15.989Z,22.72
2016-08-30T11:09:15.989Z,22.99
2016-08-30T11:10:15.976Z,23.39
2016-08-30T11:11:15.984Z,23.7
2016-08-30T11:12:15.970Z,24.07
2016-08-30T11:13:15.969Z,24.31
2016-08-30T11:14:16.690Z,24.53
2016-08-30T11:15:15.967Z,24.98
2016-08-30T11:16:15.961Z,25.15
2016-08-30T11:17:15.959Z,25.54
2016-08-30T11:18:17.869Z,25.59
2016-08-30T11:19:15.981Z,25.82
2016-08-30T11:20:16.097Z,26.09
2016-08-30T11:21:15.955Z,26.47
2016-08-30T11:22:15.955Z,26.69
2016-08-30T11:23:15.957Z,27.04
2016-08-30T11:24:15.963Z,27.5
2016-08-30T11:25:16.661Z,27.71
2016-08-30T11:26:15.961Z,27.94
2016-08-30T11:27:15.966Z,28.32
2016-08-30T11:28:15.963Z,28.53
2016-08-30T11:29:16.684Z,28.65
2016-08-30T11:30:15.991Z,28.88
2016-08-30T11:31:15.976Z,28.95
2016-08-30T11:32:16.032Z,29.19
2016-08-30T11:33:16.678Z,29.43
2016-08-30T11:34:15.973Z,29.56
2016-08-30T11:35:16.683Z,29.53
2016-08-30T11:36:15.980Z,29.72
2016-08-30T11:37:16.689Z,29.99
2016-08-30T11:38:15.985Z,30.15
2016-08-30T11:39:15.993Z,30.24
2016-08-30T11:40:16.701Z,30.56
2016-08-30T11:41:15.997Z,30.78
2016-08-30T11:42:16.005Z,30.87
2016-08-30T11:43:16.714Z,30.98
2016-08-30T11:44:17.434Z,31.13
2016-08-30T11:45:16.015Z,31.18
2016-08-30T11:46:16.721Z,31.35
2016-08-30T11:47:16.018Z,31.38
2016-08-30T11:48:16.022Z,31.42
2016-08-30T11:49:16.746Z,31.64
2016-08-30T11:50:16.051Z,31.7
2016-08-30T11:51:16.034Z,31.95
2016-08-30T11:52:16.040Z,32
2016-08-30T11:53:16.043Z,31.98
2016-08-30T11:54:16.761Z,31.93
2016-08-30T11:55:16.054Z,31.77
2016-08-30T11:56:16.767Z,31.39
2016-08-30T11:57:16.063Z,31.58
2016-08-30T11:58:16.066Z,31.61
2016-08-30T11:59:16.790Z,31.92
2016-08-30T12:00:16.076Z,32.02
2016-08-30T12:01:16.798Z,32.24
2016-08-30T12:02:16.085Z,32.48
2016-08-30T12:03:16.494Z,32.71
2016-08-30T12:04:17.514Z,32.71
2016-08-30T12:05:16.115Z,32.79
2016-08-30T12:06:16.818Z,32.8
2016-08-30T12:07:16.118Z,32.76
2016-08-30T12:08:16.820Z,32.71
2016-08-30T12:09:16.823Z,32.84
2016-08-30T12:10:16.125Z,33.04
2016-08-30T12:11:16.132Z,33.2
2016-08-30T12:12:16.129Z,33.22
2016-08-30T12:13:16.132Z,33.11
2016-08-30T12:14:16.848Z,33.26
2016-08-30T12:15:16.146Z,33.46
2016-08-30T12:16:16.153Z,33.6
2016-08-30T12:17:16.153Z,33.85
2016-08-30T12:18:16.869Z,33.89
2016-08-30T12:19:16.172Z,33.94
2016-08-30T12:20:16.423Z,34.02
2016-08-30T12:21:16.881Z,33.63
2016-08-30T12:22:16.189Z,33.36
2016-08-30T12:23:16.187Z,33.3
2016-08-30T12:24:16.907Z,33.36
2016-08-30T12:25:16.905Z,33.55
2016-08-30T12:26:16.921Z,33.85
2016-08-30T12:27:16.915Z,34.08
2016-08-30T12:28:16.213Z,34.36
2016-08-30T12:29:16.225Z,34.46
2016-08-30T12:30:16.978Z,34.34
2016-08-30T12:31:16.988Z,34.11
2016-08-30T12:32:16.238Z,33.87
2016-08-30T12:33:16.245Z,34.02
2016-08-30T12:34:16.247Z,34.22
2016-08-30T12:35:16.288Z,34.38
2016-08-30T12:36:16.269Z,34.42
2016-08-30T12:37:16.972Z,34.27
2016-08-30T12:38:16.975Z,34.24
2016-08-30T12:39:16.980Z,34.22
2016-08-30T12:40:16.277Z,34.35
2016-08-30T12:41:16.284Z,34.42
2016-08-30T12:42:16.296Z,34.41
2016-08-30T12:43:16.290Z,34.45
2016-08-30T12:44:16.301Z,34.56
2016-08-30T12:45:17.154Z,34.48
2016-08-30T12:46:16.304Z,34.46
2016-08-30T12:47:16.316Z,34.64
2016-08-30T12:48:16.355Z,34.95
2016-08-30T12:49:17.033Z,35.02
2016-08-30T12:50:17.037Z,34.95
2016-08-30T12:51:16.332Z,34.84
2016-08-30T12:52:17.045Z,34.58
2016-08-30T12:53:16.338Z,34.53
2016-08-30T12:54:16.344Z,34.61
2016-08-30T12:55:17.061Z,34.61
2016-08-30T12:56:17.067Z,34.56
2016-08-30T12:57:17.068Z,34.58
2016-08-30T12:58:16.369Z,34.57
2016-08-30T12:59:16.372Z,34.7
2016-08-30T13:00:16.453Z,34.63